createdAt,value
2022-11-17T00:00:44.580Z,27.67
2022-11-17T00:03:16.408Z,24.77
2022-11-17T00:05:44.880Z,21.80
2022-11-17T00:08:12.453Z,28.92
2022-11-17T00:10:39.790Z,28.08
2022-11-17T00:13:33.482Z,29.70
2022-11-17T00:16:01.149Z,34.28
2022-11-17T00:18:46.864Z,26.95
2022-11-17T00:21:21.419Z,31.33
2022-11-17T00:23:50.875Z,31.10
2022-11-17T00:26:27.361Z,28.48
2022-11-17T00:28:56.744Z,29.60
2022-11-17T00:31:44.201Z,30.77
2022-11-17T00:34:17.117Z,31.63
2022-11-17T00:36:52.894Z,30.73
2022-11-17T00:39:22.168Z,37.05
2022-11-17T00:41:49.944Z,28.08
2022-11-17T00:44:17.398Z,29.20
2022-11-17T00:46:44.739Z,28.58
2022-11-17T00:49:12.757Z,28.80
2022-11-17T00:51:40.339Z,31.38
2022-11-17T00:54:11.031Z,25.58
2022-11-17T00:56:38.359Z,23.73
2022-11-17T00:59:05.936Z,24.38
2022-11-17T01:01:33.353Z,25.80
2022-11-17T01:04:04.415Z,24.25
2022-11-17T01:06:40.725Z,25.55
2022-11-17T01:09:12.632Z,25.20
2022-11-17T01:11:41.409Z,26.55
2022-11-17T01:14:13.035Z,24.70
2022-11-17T01:16:41.030Z,24.90
2022-11-17T01:19:08.890Z,23.58
2022-11-17T01:21:36.271Z,25.10
2022-11-17T01:24:04.083Z,23.63
2022-11-17T01:26:34.742Z,27.98
2022-11-17T01:29:03.962Z,26.45
2022-11-17T01:31:37.599Z,29.98
2022-11-17T01:34:05.749Z,29.25
2022-11-17T01:36:57.494Z,29.52
2022-11-17T01:39:26.286Z,33.70
2022-11-17T01:41:54.726Z,33.30
2022-11-17T01:44:44.572Z,35.13
2022-11-17T01:49:42.890Z,35.17
2022-11-17T01:52:11.823Z,34.97
2022-11-17T01:54:42.227Z,34.20
2022-11-17T01:57:26.310Z,41.95
2022-11-17T02:00:04.711Z,40.47
2022-11-17T02:02:34.502Z,49.65
2022-11-17T02:05:13.599Z,48.42
2022-11-17T02:07:43.881Z,47.75
2022-11-17T02:10:11.303Z,41.40
2022-11-17T02:12:38.741Z,42.88
2022-11-17T02:15:06.550Z,45.85
2022-11-17T02:17:40.434Z,45.35
2022-11-17T02:20:08.390Z,45.50
2022-11-17T02:22:44.794Z,46.45
2022-11-17T02:25:41.085Z,43.60
2022-11-17T02:28:25.115Z,40.50
2022-11-17T02:31:07.747Z,44.38
2022-11-17T02:33:48.046Z,42.67
2022-11-17T02:36:22.951Z,46.08
2022-11-17T02:38:58.136Z,58.38
2022-11-17T02:41:32.897Z,48.42
2022-11-17T02:44:19.609Z,65.45
2022-11-17T02:46:53.759Z,67.40
2022-11-17T02:49:26.095Z,49.83
2022-11-17T02:51:56.419Z,65.10
2022-11-17T02:54:26.893Z,61.22
2022-11-17T02:56:54.615Z,59.67
2022-11-17T02:59:49.202Z,64.32
2022-11-17T03:02:21.573Z,63.95
2022-11-17T03:05:13.409Z,50.42
2022-11-17T03:08:02.194Z,65.97
2022-11-17T03:10:44.703Z,53.72
2022-11-17T03:13:20.939Z,44.60
2022-11-17T03:15:53.923Z,48.83
2022-11-17T03:18:35.199Z,49.72
2022-11-17T03:21:48.588Z,51.20
2022-11-17T03:24:25.035Z,50.85
2022-11-17T03:27:00.524Z,47.15
2022-11-17T03:29:30.649Z,49.88
2022-11-17T03:32:02.192Z,53.35
2022-11-17T03:34:35.609Z,47.38
2022-11-17T03:37:07.102Z,46.78
2022-11-17T03:39:37.659Z,45.28
2022-11-17T03:42:17.378Z,44.05
2022-11-17T03:44:50.642Z,48.88
2022-11-17T03:47:20.921Z,48.97
2022-11-17T03:49:59.734Z,39.05
2022-11-17T03:52:29.713Z,39.55
2022-11-17T03:54:57.559Z,47.35
2022-11-17T03:57:54.914Z,41.88
2022-11-17T04:00:22.354Z,38.47
2022-11-17T04:02:55.615Z,38.83
2022-11-17T04:05:22.935Z,42.13
2022-11-17T04:07:50.403Z,46.72
2022-11-17T04:10:20.331Z,38.38
2022-11-17T04:15:53.042Z,39.47
2022-11-17T04:18:20.943Z,39.75
2022-11-17T04:20:53.737Z,35.72
2022-11-17T04:23:21.594Z,39.05
2022-11-17T04:26:12.718Z,38.95
2022-11-17T04:28:43.923Z,41.25
2022-11-17T04:31:21.170Z,42.50
2022-11-17T04:33:49.660Z,41.33
2022-11-17T04:36:23.487Z,42.30
2022-11-17T04:38:53.464Z,43.88
2022-11-17T04:44:09.510Z,39.58
2022-11-17T04:46:38.131Z,39.37
2022-11-17T04:49:06.255Z,41.20
2022-11-17T04:51:34.623Z,46.65
2022-11-17T04:54:03.190Z,41.70
2022-11-17T04:56:30.581Z,43.67
2022-11-17T04:58:58.042Z,42.13
2022-11-17T05:01:27.595Z,41.45
2022-11-17T05:03:57.600Z,46.63
2022-11-17T05:08:57.931Z,45.28
2022-11-17T05:11:47.130Z,44.40
2022-11-17T05:14:16.692Z,39.83
2022-11-17T05:17:08.636Z,40.13
2022-11-17T05:19:38.454Z,44.10
2022-11-17T05:22:25.325Z,38.05
2022-11-17T05:24:53.010Z,42.70
2022-11-17T05:27:21.029Z,45.60
2022-11-17T05:29:48.539Z,49.00
2022-11-17T05:32:15.902Z,44.28
2022-11-17T05:34:43.206Z,47.60
2022-11-17T05:37:10.587Z,43.22
2022-11-17T05:39:37.969Z,45.33
2022-11-17T05:42:05.470Z,47.35
2022-11-17T05:44:33.178Z,41.65
2022-11-17T05:47:00.931Z,43.45
2022-11-17T05:49:28.180Z,39.63
2022-11-17T05:51:55.483Z,49.70
2022-11-17T05:54:22.964Z,44.22
2022-11-17T05:56:54.763Z,43.70
2022-11-17T05:59:37.418Z,35.55
2022-11-17T06:02:17.954Z,39.75
2022-11-17T06:04:46.425Z,41.90
2022-11-17T06:07:14.054Z,40.28
2022-11-17T06:09:42.573Z,42.33
2022-11-17T06:12:12.028Z,37.38
2022-11-17T06:14:39.856Z,37.95
2022-11-17T06:17:23.195Z,42.60
2022-11-17T06:19:58.621Z,44.63
2022-11-17T06:22:26.960Z,45.10
2022-11-17T06:24:55.173Z,42.40
2022-11-17T06:27:23.046Z,43.40
2022-11-17T06:29:50.428Z,56.20
2022-11-17T06:32:19.520Z,72.90
2022-11-17T06:34:55.217Z,68.97
2022-11-17T06:37:24.950Z,63.08
2022-11-17T06:39:52.988Z,58.20
2022-11-17T06:42:40.222Z,49.63
2022-11-17T06:45:08.192Z,52.78
2022-11-17T06:47:35.548Z,75.13
2022-11-17T06:50:03.218Z,56.03
2022-11-17T06:52:30.535Z,54.58
2022-11-17T06:54:57.899Z,47.95
2022-11-17T06:57:25.310Z,44.00
2022-11-17T06:59:52.837Z,51.78
2022-11-17T07:02:20.504Z,39.92
2022-11-17T07:04:47.797Z,40.92
2022-11-17T07:07:15.302Z,39.38
2022-11-17T07:09:42.553Z,38.20
2022-11-17T07:12:09.772Z,44.42
2022-11-17T07:14:37.274Z,34.75
2022-11-17T07:17:04.446Z,34.47
2022-11-17T07:19:31.669Z,39.17
2022-11-17T07:21:58.945Z,35.67
2022-11-17T07:24:26.168Z,38.65
2022-11-17T07:26:53.370Z,35.47
2022-11-17T07:29:20.730Z,34.70
2022-11-17T07:31:47.929Z,38.63
2022-11-17T07:34:15.165Z,34.42
2022-11-17T07:36:42.426Z,35.03
2022-11-17T07:39:09.708Z,36.58
2022-11-17T07:41:36.880Z,37.17
2022-11-17T07:44:04.285Z,32.63
2022-11-17T07:46:31.467Z,34.60
2022-11-17T07:48:58.713Z,35.28
2022-11-17T07:51:26.403Z,40.50
2022-11-17T07:53:53.654Z,40.25
2022-11-17T07:56:20.946Z,36.58
2022-11-17T07:58:48.318Z,35.65
2022-11-17T08:01:15.748Z,37.35
2022-11-17T08:03:43.929Z,35.17
2022-11-17T08:06:11.466Z,36.47
2022-11-17T08:08:39.177Z,34.20
2022-11-17T08:11:09.022Z,36.28
2022-11-17T08:13:37.032Z,34.78
2022-11-17T08:16:04.640Z,37.70
2022-11-17T08:18:32.796Z,37.92
2022-11-17T08:21:07.313Z,52.33
2022-11-17T08:23:35.241Z,47.55
2022-11-17T08:26:03.713Z,34.38
2022-11-17T08:28:31.403Z,29.02
2022-11-17T08:31:01.925Z,23.98
2022-11-17T08:33:29.388Z,43.42
2022-11-17T08:36:01.042Z,53.83
2022-11-17T08:38:31.057Z,446.63
2022-11-17T08:40:59.401Z,36.30
2022-11-17T08:43:27.574Z,29.75
2022-11-17T08:45:54.805Z,58.10
2022-11-17T08:48:22.045Z,26.02
2022-11-17T08:50:49.991Z,25.42
2022-11-17T08:53:19.567Z,24.73
2022-11-17T08:55:46.910Z,96.60
2022-11-17T08:58:14.165Z,641.00
2022-11-17T09:00:42.462Z,23.08
2022-11-17T09:03:10.905Z,61.75
2022-11-17T09:05:44.219Z,23.42
2022-11-17T09:08:44.044Z,26.38
2022-11-17T09:11:05.700Z,60.53
2022-11-17T09:13:33.676Z,119.95
2022-11-17T09:16:09.927Z,243.98
2022-11-17T09:18:38.409Z,162.68
2022-11-17T09:21:09.429Z,39.13
2022-11-17T09:23:37.610Z,29.02
2022-11-17T09:26:11.582Z,27.85
2022-11-17T09:28:39.356Z,44.15
2022-11-17T09:31:18.702Z,29.05
2022-11-17T09:33:46.284Z,25.58
2022-11-17T09:36:16.702Z,31.00
2022-11-17T09:38:44.773Z,20.38
2022-11-17T09:41:22.197Z,25.00
2022-11-17T09:44:02.460Z,26.90
2022-11-17T09:47:06.124Z,28.38
2022-11-17T09:49:55.241Z,27.20
2022-11-17T09:52:41.102Z,28.02
2022-11-17T09:55:08.347Z,131.75
2022-11-17T09:57:45.073Z,32.50
2022-11-17T10:00:16.775Z,27.40
2022-11-17T10:02:45.597Z,25.20
2022-11-17T10:05:14.352Z,22.45
2022-11-17T10:07:47.990Z,25.25
2022-11-17T10:10:31.004Z,22.50
2022-11-17T10:12:58.754Z,21.85
2022-11-17T10:15:30.742Z,22.38
2022-11-17T10:17:58.060Z,23.70
2022-11-17T10:20:25.265Z,24.85
2022-11-17T10:22:54.538Z,17.27
2022-11-17T10:25:43.934Z,19.30
2022-11-17T10:28:32.311Z,15.57
2022-11-17T10:31:10.206Z,16.42
2022-11-17T10:33:44.124Z,18.20
2022-11-17T10:36:14.459Z,16.80
2022-11-17T10:38:47.161Z,16.42
2022-11-17T10:41:18.776Z,16.33
2022-11-17T10:44:03.282Z,18.90
2022-11-17T10:46:41.585Z,15.82
2022-11-17T10:49:33.636Z,16.95
2022-11-17T10:52:19.105Z,16.17
2022-11-17T10:54:46.468Z,18.48
2022-11-17T10:57:21.708Z,18.35
2022-11-17T10:59:56.894Z,20.02
2022-11-17T11:02:34.570Z,17.30
2022-11-17T11:05:17.439Z,16.30
2022-11-17T11:07:45.149Z,17.20
2022-11-17T11:10:33.394Z,15.68
2022-11-17T11:13:00.748Z,16.40
2022-11-17T11:15:33.458Z,15.63
2022-11-17T11:18:01.081Z,17.00
2022-11-17T11:20:45.852Z,14.57
2022-11-17T11:23:16.090Z,16.25
2022-11-17T11:25:57.317Z,18.90
2022-11-17T11:28:39.013Z,18.40
2022-11-17T11:31:13.384Z,14.43
2022-11-17T11:34:23.747Z,15.32
2022-11-17T11:36:55.745Z,16.65
2022-11-17T11:39:43.165Z,17.50
2022-11-17T11:42:36.002Z,17.52
2022-11-17T11:45:22.141Z,22.25
2022-11-17T11:48:07.868Z,17.77
2022-11-17T11:50:57.910Z,17.15
2022-11-17T11:53:31.917Z,19.73
2022-11-17T11:56:11.297Z,17.23
2022-11-17T11:58:45.150Z,18.52
2022-11-17T12:01:14.714Z,15.38
2022-11-17T12:03:56.851Z,18.15
2022-11-17T12:06:42.787Z,15.77
2022-11-17T12:09:40.016Z,13.82
2022-11-17T12:12:13.455Z,17.13
2022-11-17T12:15:12.884Z,20.52
2022-11-17T12:17:51.992Z,19.67
2022-11-17T12:20:51.403Z,17.52
2022-11-17T12:23:37.501Z,14.77
2022-11-17T12:26:05.273Z,16.25
2022-11-17T12:28:40.800Z,21.75
2022-11-17T12:31:32.568Z,14.20
2022-11-17T12:33:59.948Z,17.55
2022-11-17T12:36:36.894Z,19.10
2022-11-17T12:39:08.929Z,14.95
2022-11-17T12:41:48.092Z,19.35
2022-11-17T12:44:37.300Z,16.73
2022-11-17T12:47:14.180Z,17.08
2022-11-17T12:50:07.901Z,16.50
2022-11-17T12:52:47.389Z,14.00
2022-11-17T12:55:33.113Z,17.33
2022-11-17T12:58:21.557Z,13.48
2022-11-17T13:01:03.100Z,16.88
2022-11-17T13:03:38.903Z,18.02
2022-11-17T13:06:34.225Z,16.13
2022-11-17T13:09:21.610Z,17.75
2022-11-17T13:12:06.199Z,20.00
2022-11-17T13:14:51.476Z,15.15
2022-11-17T13:17:21.997Z,16.08
2022-11-17T13:20:01.637Z,15.38
2022-11-17T13:22:29.111Z,18.15
2022-11-17T13:24:57.913Z,15.27
2022-11-17T13:27:31.994Z,19.00
2022-11-17T13:30:30.128Z,19.58
2022-11-17T13:33:00.873Z,21.15
2022-11-17T13:35:33.974Z,21.33
2022-11-17T13:38:22.862Z,18.83
2022-11-17T13:40:51.977Z,16.27
2022-11-17T13:43:24.274Z,17.27
2022-11-17T13:45:53.965Z,17.17
2022-11-17T13:48:34.329Z,17.50
2022-11-17T13:51:20.140Z,18.77
2022-11-17T13:53:53.225Z,18.33
2022-11-17T13:56:32.168Z,17.55
2022-11-17T13:59:02.659Z,16.33
2022-11-17T14:01:31.413Z,15.88
2022-11-17T14:04:20.073Z,14.18
2022-11-17T14:06:57.448Z,17.13
2022-11-17T14:09:27.858Z,17.92
2022-11-17T14:11:55.772Z,16.83
2022-11-17T14:14:32.788Z,16.90
2022-11-17T14:17:18.752Z,16.45
2022-11-17T14:19:46.688Z,19.58
2022-11-17T14:22:21.348Z,20.52
2022-11-17T14:24:51.897Z,21.77
2022-11-17T14:27:31.983Z,19.95
2022-11-17T14:29:59.304Z,21.80
2022-11-17T14:32:26.727Z,22.27
2022-11-17T14:34:54.080Z,28.67
2022-11-17T14:37:21.440Z,189.20
2022-11-17T14:39:48.927Z,185.43
2022-11-17T14:42:16.284Z,170.27
2022-11-17T14:44:43.661Z,222.75
2022-11-17T14:47:11.042Z,210.15
2022-11-17T14:49:38.361Z,206.98
2022-11-17T14:52:05.666Z,150.05
2022-11-17T14:54:33.053Z,136.07
2022-11-17T14:57:00.417Z,83.60
2022-11-17T14:59:27.761Z,63.78
2022-11-17T15:01:55.117Z,72.68
2022-11-17T15:04:49.014Z,68.43
2022-11-17T15:07:09.991Z,59.05
2022-11-17T15:09:37.356Z,50.08
2022-11-17T15:12:04.893Z,53.53
2022-11-17T15:14:32.400Z,50.63
2022-11-17T15:16:59.734Z,53.67
2022-11-17T15:19:27.174Z,52.13
2022-11-17T15:21:54.594Z,51.65
2022-11-17T15:24:22.182Z,49.17
2022-11-17T15:26:49.628Z,57.80
2022-11-17T15:29:17.232Z,54.53
2022-11-17T15:31:45.033Z,52.55
2022-11-17T15:34:19.723Z,56.13
2022-11-17T15:36:48.542Z,66.80
2022-11-17T15:39:16.808Z,67.32
2022-11-17T15:41:44.761Z,77.63
2022-11-17T15:44:12.064Z,81.03
2022-11-17T15:46:44.287Z,75.15
2022-11-17T15:49:14.692Z,78.68
2022-11-17T15:55:49.392Z,69.43
2022-11-17T15:58:16.711Z,69.28
2022-11-17T16:00:44.167Z,61.78
2022-11-17T16:03:11.529Z,64.60
2022-11-17T16:05:39.071Z,78.20
2022-11-17T16:08:06.524Z,77.07
2022-11-17T16:10:33.892Z,86.75
2022-11-17T16:13:01.320Z,98.90
2022-11-17T16:15:28.948Z,98.65
2022-11-17T16:17:56.254Z,112.20
2022-11-17T16:20:23.668Z,121.32
2022-11-17T16:22:51.004Z,91.90
2022-11-17T16:25:18.349Z,81.25
2022-11-17T16:27:46.285Z,107.00
2022-11-17T16:30:14.004Z,107.90
2022-11-17T16:32:41.293Z,124.47
2022-11-17T16:35:08.938Z,120.82
2022-11-17T16:37:36.275Z,112.38
2022-11-17T16:40:04.929Z,105.03
2022-11-17T16:42:32.660Z,106.07
2022-11-17T16:45:00.375Z,114.00
2022-11-17T16:47:28.665Z,113.47
2022-11-17T16:49:56.084Z,112.82
2022-11-17T16:52:23.400Z,101.68
2022-11-17T16:54:50.784Z,103.80
2022-11-17T16:57:18.222Z,94.25
2022-11-17T16:59:45.509Z,97.50
2022-11-17T17:02:13.084Z,111.68
2022-11-17T17:04:40.496Z,110.07
2022-11-17T17:07:07.838Z,105.55
2022-11-17T17:09:37.326Z,87.95
2022-11-17T17:12:05.173Z,82.30
2022-11-17T17:14:32.473Z,83.57
2022-11-17T17:16:59.864Z,72.43
2022-11-17T17:19:27.335Z,68.90
2022-11-17T17:21:54.998Z,66.63
2022-11-17T17:24:22.401Z,69.10
2022-11-17T17:26:49.726Z,62.67
2022-11-17T17:29:17.271Z,69.07
2022-11-17T17:31:44.787Z,71.60
2022-11-17T17:34:12.844Z,74.18
2022-11-17T17:36:40.439Z,59.88
2022-11-17T17:39:08.094Z,67.05
2022-11-17T17:41:39.705Z,60.55
2022-11-17T17:44:08.488Z,61.13
2022-11-17T17:46:37.987Z,56.80
2022-11-17T17:49:06.209Z,57.08
2022-11-17T17:51:37.393Z,57.97
2022-11-17T17:54:04.875Z,61.15
2022-11-17T17:56:33.997Z,51.55
2022-11-17T17:59:01.449Z,55.80
2022-11-17T18:01:33.081Z,62.72
2022-11-17T18:04:04.793Z,50.50
2022-11-17T18:06:38.353Z,47.20
2022-11-17T18:09:07.902Z,54.65
2022-11-17T18:11:35.793Z,49.88
2022-11-17T18:14:04.510Z,50.38
2022-11-17T18:16:33.867Z,47.63
2022-11-17T18:19:06.397Z,49.97
2022-11-17T18:21:34.583Z,54.70
2022-11-17T18:24:02.736Z,50.33
2022-11-17T18:26:32.856Z,50.80
2022-11-17T18:29:06.805Z,49.47
2022-11-17T18:31:36.058Z,46.25
2022-11-17T18:34:21.108Z,45.95
2022-11-17T18:36:53.388Z,51.65
2022-11-17T18:39:21.388Z,48.53
2022-11-17T18:41:48.774Z,59.58
2022-11-17T18:44:18.467Z,51.67
2022-11-17T18:46:46.444Z,57.15
2022-11-17T18:49:14.522Z,54.25
2022-11-17T18:51:42.250Z,53.08
2022-11-17T18:54:12.972Z,53.35
2022-11-17T18:56:40.517Z,50.92
2022-11-17T18:59:11.392Z,47.15
2022-11-17T19:01:43.170Z,53.22
2022-11-17T19:04:14.141Z,55.53
2022-11-17T19:06:42.111Z,51.55
2022-11-17T19:09:09.554Z,57.90
2022-11-17T19:11:37.089Z,49.15
2022-11-17T19:16:44.504Z,51.70
2022-11-17T19:19:13.683Z,50.25
2022-11-17T19:21:41.868Z,50.43
2022-11-17T19:24:09.236Z,54.95
2022-11-17T19:26:36.677Z,49.63
2022-11-17T19:29:09.897Z,52.15
2022-11-17T19:31:40.173Z,50.88
2022-11-17T19:34:07.552Z,54.70
2022-11-17T19:36:35.318Z,49.20
2022-11-17T19:39:03.820Z,55.60
2022-11-17T19:41:36.788Z,47.22
2022-11-17T19:44:06.874Z,51.25
2022-11-17T19:46:36.294Z,47.65
2022-11-17T19:49:05.948Z,50.03
2022-11-17T19:51:38.529Z,52.65
2022-11-17T19:54:07.835Z,46.88
2022-11-17T19:56:35.952Z,39.90
2022-11-17T19:59:03.543Z,44.47
2022-11-17T20:01:32.332Z,45.55
2022-11-17T20:04:01.101Z,49.67
2022-11-17T20:06:32.023Z,47.72
2022-11-17T20:08:59.458Z,49.78
2022-11-17T20:11:28.297Z,43.20
2022-11-17T20:13:56.283Z,51.35
2022-11-17T20:16:25.912Z,43.30
2022-11-17T20:18:55.404Z,49.28
2022-11-17T20:21:24.060Z,53.70
2022-11-17T20:23:51.561Z,44.25
2022-11-17T20:26:20.017Z,44.55
2022-11-17T20:28:48.010Z,46.00
2022-11-17T20:31:35.480Z,47.97
2022-11-17T20:34:05.329Z,50.17
2022-11-17T20:36:34.144Z,53.08
2022-11-17T20:39:04.161Z,55.10
2022-11-17T20:41:31.891Z,54.28
2022-11-17T20:44:00.545Z,56.30
2022-11-17T20:46:28.241Z,53.22
2022-11-17T20:48:55.745Z,54.58
2022-11-17T20:51:24.947Z,57.58
2022-11-17T20:53:52.450Z,50.83
2022-11-17T20:56:20.264Z,54.95
2022-11-17T20:58:47.740Z,58.33
2022-11-17T21:01:17.932Z,52.75
2022-11-17T21:03:46.071Z,57.60
2022-11-17T21:06:14.383Z,51.45
2022-11-17T21:08:43.384Z,53.20
2022-11-17T21:11:37.998Z,51.63
2022-11-17T21:14:08.222Z,49.10
2022-11-17T21:16:38.017Z,56.10
2022-11-17T21:19:06.099Z,64.68
2022-11-17T21:21:33.792Z,66.03
2022-11-17T21:24:01.365Z,60.72
2022-11-17T21:26:28.693Z,57.55
2022-11-17T21:29:00.461Z,51.95
2022-11-17T21:31:31.856Z,62.67
2022-11-17T21:34:02.097Z,64.30
2022-11-17T21:36:31.113Z,62.10
2022-11-17T21:38:59.049Z,57.33
2022-11-17T21:41:28.532Z,61.05
2022-11-17T21:44:00.154Z,60.58
2022-11-17T21:46:30.233Z,60.25
2022-11-17T21:48:58.993Z,60.28
2022-11-17T21:51:38.506Z,70.38
2022-11-17T21:54:09.916Z,62.17
2022-11-17T21:56:37.521Z,64.72
2022-11-17T21:59:09.864Z,68.38
2022-11-17T22:01:37.996Z,58.70
2022-11-17T22:04:05.677Z,66.65
2022-11-17T22:06:33.015Z,71.00
2022-11-17T22:09:00.834Z,82.45
2022-11-17T22:11:36.749Z,79.60
2022-11-17T22:14:13.210Z,83.82
2022-11-17T22:16:53.613Z,79.93
2022-11-17T22:19:23.351Z,85.30
2022-11-17T22:21:52.528Z,96.28
2022-11-17T22:24:21.243Z,116.57
2022-11-17T22:26:48.813Z,113.25
2022-11-17T22:29:18.706Z,114.03
2022-11-17T22:31:48.677Z,131.55
2022-11-17T22:34:17.074Z,110.15
2022-11-17T22:36:44.621Z,113.28
2022-11-17T22:39:11.919Z,93.50
2022-11-17T22:41:39.497Z,91.15
2022-11-17T22:44:07.186Z,122.53
2022-11-17T22:46:35.178Z,109.53
2022-11-17T22:49:03.273Z,107.22
2022-11-17T22:51:49.165Z,92.95
2022-11-17T22:54:16.817Z,105.07
2022-11-17T22:56:44.939Z,110.68
2022-11-17T22:59:12.421Z,108.05
2022-11-17T23:01:39.777Z,101.70
2022-11-17T23:04:07.213Z,97.45
2022-11-17T23:06:34.724Z,120.75
2022-11-17T23:09:02.033Z,110.22
2022-11-17T23:11:37.181Z,124.75
2022-11-17T23:14:08.031Z,181.68
2022-11-17T23:16:37.479Z,366.92
2022-11-17T23:19:05.739Z,155.07
2022-11-17T23:21:33.101Z,134.80
2022-11-17T23:24:00.601Z,542.33
2022-11-17T23:26:27.944Z,378.85
2022-11-17T23:28:55.361Z,354.42
2022-11-17T23:31:22.724Z,771.50
2022-11-17T23:33:50.101Z,353.77
2022-11-17T23:36:21.957Z,734.53
2022-11-17T23:38:50.787Z,489.00
2022-11-17T23:41:20.402Z,693.72
2022-11-17T23:43:52.391Z,186.82
2022-11-17T23:46:22.389Z,208.90
2022-11-17T23:48:50.004Z,912.45
2022-11-17T23:51:21.976Z,656.60
2022-11-17T23:53:52.078Z,748.92
2022-11-17T23:56:20.544Z,379.98
2022-11-17T23:58:48.277Z,223.57
